Time;durP1;ratioP1;P1;durP2;ratioP2;P2;SDS_P1;SDS_P2;PMS_P1;PMS_P2;Temp;Humidity;BMP_temperature;BMP_pressure;BME280_temperature;BME280_humidity;BME280_pressure;Samples;Min_cycle;Max_cycle;Signal;HPM_P1;HPM_P2
2022/04/26 03:37:55;;;;;;;13.23;11.93;;;14.60;75.60;15.00;95953.00;;;;5071739;28;20187;-81
2022/04/26 03:40:22;;;;;;;13.57;12.17;;;14.60;75.60;15.00;95956.00;;;;5071868;28;20289;-81
2022/04/26 03:42:49;;;;;;;14.20;12.80;;;14.60;75.50;15.00;95961.00;;;;5074799;28;20295;-81
2022/04/26 03:45:16;;;;;;;14.03;12.70;;;14.60;75.50;15.00;95966.00;;;;5078697;28;20192;-80
2022/04/26 03:47:43;;;;;;;13.43;12.07;;;14.60;75.60;15.00;95970.00;;;;5078609;28;20247;-81
2022/04/26 03:50:11;;;;;;;14.13;12.73;;;14.60;75.70;15.00;95958.00;;;;5078771;28;20219;-80
2022/04/26 03:52:40;;;;;;;13.53;12.23;;;14.60;75.90;15.00;95952.00;;;;5068077;28;20238;-80
2022/04/26 03:55:08;;;;;;;12.80;11.53;;;14.60;76.00;15.00;95958.00;;;;5073439;28;20201;-81
2022/04/26 03:57:35;;;;;;;13.87;12.57;;;14.60;76.40;15.00;95959.00;;;;5077485;28;20693;-81
2022/04/26 04:00:03;;;;;;;14.00;12.60;;;14.60;76.50;15.00;95963.00;;;;5077472;28;20227;-81
2022/04/26 04:02:30;;;;;;;14.53;12.80;;;14.60;76.90;15.00;95955.00;;;;5076842;28;20230;-81
2022/04/26 04:04:57;;;;;;;12.93;11.73;;;14.60;75.90;15.00;95960.00;;;;5076272;28;20200;-81
2022/04/26 04:07:25;;;;;;;11.83;10.73;;;14.60;75.70;14.90;95966.00;;;;5075943;28;20286;-81
2022/04/26 04:09:54;;;;;;;13.00;11.70;;;14.60;75.80;15.00;95957.00;;;;5075648;28;20220;-81
2022/04/26 04:12:21;;;;;;;12.67;11.47;;;14.50;75.70;14.90;95956.00;;;;5074313;28;20590;-81
2022/04/26 04:14:48;;;;;;;12.97;11.67;;;14.50;75.60;14.90;95953.00;;;;5075042;28;20211;-81
2022/04/26 04:17:15;;;;;;;12.23;11.03;;;14.50;75.60;14.90;95955.00;;;;5076049;28;20220;-80
2022/04/26 04:19:42;;;;;;;12.43;11.33;;;14.50;75.50;14.90;95949.00;;;;5074720;28;20227;-80
2022/04/26 04:22:09;;;;;;;12.40;11.30;;;14.50;75.50;14.90;95960.00;;;;5074714;28;20886;-81
2022/04/26 04:24:38;;;;;;;11.47;10.37;;;14.50;75.70;14.90;95970.00;;;;5074248;28;20205;-80
2022/04/26 04:27:05;;;;;;;11.90;10.80;;;14.50;75.90;14.90;95970.00;;;;5073149;28;20238;-81
2022/04/26 04:29:32;;;;;;;11.40;10.30;;;14.50;75.90;14.90;95973.00;;;;5072636;28;20665;-81
2022/04/26 04:31:59;;;;;;;12.27;11.07;;;14.50;75.90;14.80;95975.00;;;;5071842;28;20231;-81
2022/04/26 04:34:26;;;;;;;12.60;11.37;;;14.40;75.80;14.80;95974.00;;;;5072167;28;20211;-82
2022/04/26 04:36:53;;;;;;;12.40;11.20;;;14.40;75.80;14.90;95975.00;;;;5070951;28;20229;-79
2022/04/26 04:39:20;;;;;;;11.93;10.70;;;14.40;75.80;14.90;95978.00;;;;5073257;28;20784;-81
2022/04/26 04:41:49;;;;;;;11.47;10.37;;;14.40;76.20;14.90;95988.00;;;;5071869;28;20256;-80
2022/04/26 04:44:17;;;;;;;12.20;11.07;;;14.40;76.50;14.90;95990.00;;;;5070711;28;20210;-80
2022/04/26 04:46:45;;;;;;;12.40;11.23;;;14.40;76.40;14.90;95994.00;;;;5070680;28;20204;-81
2022/04/26 04:49:13;;;;;;;12.87;11.53;;;14.40;76.60;14.90;96002.00;;;;5080088;28;20195;-80
2022/04/26 04:51:40;;;;;;;13.23;11.93;;;14.40;76.70;15.00;96006.00;;;;5077828;28;20259;-80
2022/04/26 04:54:07;;;;;;;11.73;10.63;;;14.50;76.70;15.00;96012.00;;;;5074587;28;20196;-80
2022/04/26 04:56:34;;;;;;;12.53;11.23;;;14.40;76.50;15.00;96005.00;;;;5066210;28;20203;-81
2022/04/26 04:59:03;;;;;;;11.60;10.57;;;14.40;76.70;15.00;96008.00;;;;5076776;28;20200;-81
2022/04/26 05:01:30;;;;;;;12.70;11.47;;;14.40;77.00;15.00;96018.00;;;;5077076;28;20220;-80
2022/04/26 05:03:57;;;;;;;12.77;11.50;;;14.40;77.20;15.00;96007.00;;;;5076477;28;20287;-81
2022/04/26 05:06:24;;;;;;;12.83;11.60;;;14.40;77.30;15.00;96012.00;;;;5075169;28;20191;-80
2022/04/26 05:08:51;;;;;;;12.33;11.17;;;14.40;77.50;15.00;96014.00;;;;5074853;28;20199;-80
2022/04/26 05:11:18;;;;;;;12.83;11.53;;;14.40;77.70;15.00;96028.00;;;;5072915;28;20220;-82
2022/04/26 05:13:45;;;;;;;12.50;11.30;;;14.50;78.00;15.00;96025.00;;;;5065078;28;20265;-83
2022/04/26 05:16:14;;;;;;;13.17;11.83;;;14.50;78.10;15.10;96034.00;;;;5065714;28;20200;-81
2022/04/26 05:18:41;;;;;;;12.57;11.33;;;14.50;78.00;15.10;96024.00;;;;5068943;28;20708;-82
2022/04/26 05:21:08;;;;;;;13.37;11.67;;;14.50;78.00;15.10;96018.00;;;;5068947;28;20864;-81
2022/04/26 05:26:21;;;;;;;11.67;10.53;;;14.50;78.50;15.10;96020.00;;;;5099989;22;20269;-83
2022/04/26 05:28:48;;;;;;;12.43;11.23;;;14.50;78.50;15.10;96008.00;;;;5088087;28;20196;-83
2022/04/26 05:31:17;;;;;;;11.93;10.83;;;14.50;78.60;15.10;96015.00;;;;5088654;28;20645;-83
2022/04/26 05:33:44;;;;;;;11.77;10.67;;;14.50;78.80;15.10;96012.00;;;;5092318;28;20195;-83
2022/04/26 05:36:11;;;;;;;12.07;10.90;;;14.50;78.90;15.10;96006.00;;;;5093996;28;20272;-84
2022/04/26 05:38:38;;;;;;;12.43;11.33;;;14.50;79.00;15.10;96015.00;;;;5083554;28;20690;-84
2022/04/26 05:41:06;;;;;;;12.53;11.27;;;14.50;79.10;15.10;96016.00;;;;5076072;28;20196;-83
2022/04/26 05:43:33;;;;;;;12.30;11.10;;;14.50;79.20;15.10;96009.00;;;;5072955;28;20220;-84
2022/04/26 05:46:01;;;;;;;12.10;10.97;;;14.30;79.00;15.10;96019.00;;;;5076670;28;20211;-84
2022/04/26 05:48:29;;;;;;;12.77;11.50;;;14.50;79.90;15.10;96018.00;;;;5077493;28;20196;-84
2022/04/26 05:50:57;;;;;;;13.00;11.60;;;14.50;79.50;15.10;96020.00;;;;5074428;28;20838;-83
2022/04/26 05:53:24;;;;;;;12.47;11.17;;;14.50;79.80;15.10;96018.00;;;;5069766;28;20216;-87
2022/04/26 05:55:52;;;;;;;12.07;10.93;;;14.50;80.00;15.10;96012.00;;;;5070314;28;20230;-84
2022/04/26 05:58:20;;;;;;;11.67;10.57;;;14.50;79.70;15.10;96012.00;;;;5071039;28;20200;-86
2022/04/26 06:00:47;;;;;;;12.13;11.03;;;14.80;80.00;15.10;96023.00;;;;5090599;28;20568;-83
2022/04/26 06:03:14;;;;;;;13.77;12.37;;;14.50;79.90;15.20;96020.00;;;;5088192;28;20545;-84
2022/04/26 06:05:43;;;;;;;12.83;11.53;;;14.50;80.00;15.20;96029.00;;;;5072579;28;20303;-84
2022/04/26 06:08:10;;;;;;;13.20;11.83;;;14.50;80.00;15.20;96035.00;;;;5071792;28;20206;-84
2022/04/26 06:10:39;;;;;;;13.90;12.40;;;14.50;79.90;15.20;96030.00;;;;5072916;28;20204;-83
2022/04/26 06:13:08;;;;;;;13.90;12.50;;;14.60;80.00;15.20;96031.00;;;;5073950;28;20220;-85
2022/04/26 06:15:35;;;;;;;14.67;13.20;;;14.60;79.80;15.20;96025.00;;;;5083445;28;20254;-83
2022/04/26 06:18:02;;;;;;;13.30;12.00;;;14.60;79.60;15.10;96023.00;;;;5095394;28;20287;-83
2022/04/26 06:20:29;;;;;;;14.70;12.87;;;14.60;79.70;15.20;96026.00;;;;5094276;28;20238;-84
2022/04/26 06:22:58;;;;;;;14.47;12.80;;;14.60;79.70;15.20;96023.00;;;;5093436;28;20226;-83
2022/04/26 06:25:25;;;;;;;14.50;13.00;;;14.60;80.00;15.20;96032.00;;;;5092712;28;20302;-85
2022/04/26 06:27:52;;;;;;;12.97;11.77;;;14.60;80.30;15.20;96033.00;;;;5092599;28;20238;-84
2022/04/26 06:30:19;;;;;;;14.60;13.10;;;14.60;80.40;15.30;96026.00;;;;5092680;28;20645;-84
2022/04/26 06:32:46;;;;;;;13.87;12.43;;;14.60;80.60;15.30;96031.00;;;;5079558;28;20222;-83
2022/04/26 06:35:13;;;;;;;15.70;13.03;;;14.70;80.90;15.40;96033.00;;;;5072621;28;20196;-83
2022/04/26 06:37:40;;;;;;;14.57;13.07;;;14.70;81.10;15.50;96026.00;;;;5082685;28;20644;-83
2022/04/26 06:40:10;;;;;;;16.07;13.03;;;14.70;81.20;15.50;96034.00;;;;5089013;28;20203;-84
2022/04/26 06:42:37;;;;;;;13.40;11.97;;;14.80;81.30;15.60;96033.00;;;;5092793;28;20226;-83
2022/04/26 06:45:05;;;;;;;14.23;12.73;;;14.80;81.50;15.70;96033.00;;;;5085914;28;20224;-83
2022/04/26 06:47:32;;;;;;;15.03;13.37;;;14.90;81.60;15.80;96032.00;;;;5079752;28;20196;-85
2022/04/26 06:49:59;;;;;;;13.73;12.33;;;15.00;81.60;15.90;96037.00;;;;5076911;28;20282;-84
2022/04/26 06:52:28;;;;;;;15.83;13.93;;;15.00;82.00;16.00;96034.00;;;;5088952;28;20302;-82
2022/04/26 06:54:55;;;;;;;17.10;15.30;;;15.10;82.20;16.10;96041.00;;;;5093245;28;21075;-81
2022/04/26 06:57:24;;;;;;;16.57;14.53;;;15.20;81.90;16.20;96039.00;;;;5091706;28;20250;-81
2022/04/26 06:59:51;;;;;;;17.13;14.80;;;15.30;81.50;16.20;96040.00;;;;5092942;28;20230;-82
2022/04/26 07:02:20;;;;;;;16.00;14.30;;;15.30;81.00;16.30;96040.00;;;;5078504;28;20679;-81
2022/04/26 07:04:47;;;;;;;17.10;15.37;;;15.40;80.70;16.30;96036.00;;;;5088104;28;20191;-82
2022/04/26 07:07:14;;;;;;;16.40;14.67;;;15.40;80.90;16.40;96040.00;;;;5091611;28;20223;-82
2022/04/26 07:09:41;;;;;;;15.60;14.00;;;15.50;81.50;16.40;96039.00;;;;5082868;28;20616;-81
2022/04/26 07:12:09;;;;;;;19.53;13.87;;;15.50;81.70;16.50;96034.00;;;;5072395;28;20314;-83
2022/04/26 07:14:38;;;;;;;15.33;13.83;;;15.60;81.60;16.60;96032.00;;;;5070570;28;20290;-83
2022/04/26 07:17:06;;;;;;;16.00;14.40;;;15.70;81.40;16.70;96037.00;;;;5088237;28;20306;-84
2022/04/26 07:19:36;;;;;;;14.87;13.23;;;15.70;81.00;16.70;96034.00;;;;5091875;28;20286;-83
2022/04/26 07:22:04;;;;;;;15.33;13.83;;;15.80;80.80;16.70;96034.00;;;;5092393;28;20226;-82
2022/04/26 07:24:31;;;;;;;15.50;13.90;;;15.80;80.50;16.80;96031.00;;;;5092185;28;20580;-82
2022/04/26 07:26:58;;;;;;;15.77;14.00;;;15.90;80.40;16.80;96031.00;;;;5091765;28;20568;-82
2022/04/26 07:29:29;;;;;;;14.87;13.47;;;15.90;80.00;16.80;96033.00;;;;5090535;28;20272;-82
2022/04/26 07:31:58;;;;;;;15.73;14.13;;;15.90;79.80;16.80;96027.00;;;;5089762;28;20207;-83
2022/04/26 07:34:25;;;;;;;15.40;13.87;;;16.00;79.80;16.90;96029.00;;;;5091261;28;20274;-82
2022/04/26 07:36:59;;;;;;;15.10;13.33;;;16.00;80.00;16.90;96036.00;;;;5091363;28;20215;-83
2022/04/26 07:39:26;;;;;;;15.17;13.53;;;16.00;80.10;16.90;96036.00;;;;5091893;28;20545;-83
2022/04/26 07:41:53;;;;;;;14.97;13.37;;;16.00;80.00;16.90;96035.00;;;;5091217;28;20526;-83
2022/04/26 07:44:21;;;;;;;14.43;12.93;;;16.10;80.10;17.00;96038.00;;;;5091498;28;20223;-83
2022/04/26 07:46:51;;;;;;;14.53;13.10;;;16.10;79.80;17.00;96038.00;;;;5091870;28;20302;-83
2022/04/26 07:49:23;;;;;;;14.43;13.07;;;16.10;79.60;17.00;96039.00;;;;5091148;28;20199;-82
2022/04/26 07:51:52;;;;;;;14.47;13.07;;;16.20;79.90;17.10;96039.00;;;;5086422;28;20196;-83
2022/04/26 07:54:20;;;;;;;13.37;11.93;;;16.20;80.20;17.10;96040.00;;;;5071621;28;20664;-83
2022/04/26 07:56:47;;;;;;;10.83;9.83;;;16.20;80.00;17.20;96043.00;;;;5071353;28;20220;-83
2022/04/26 07:59:15;;;;;;;13.70;11.73;;;16.30;79.60;17.30;96044.00;;;;5071162;28;20239;-84
2022/04/26 08:01:42;;;;;;;10.87;9.77;;;16.30;79.50;17.40;96043.00;;;;5088480;28;20191;-83
2022/04/26 08:04:09;;;;;;;9.37;8.50;;;16.50;79.20;17.50;96048.00;;;;5091764;28;20278;-84
2022/04/26 08:06:38;;;;;;;7.90;7.17;;;16.50;78.90;17.60;96046.00;;;;5090395;28;20306;-84
2022/04/26 08:09:05;;;;;;;9.50;8.60;;;16.60;78.60;17.70;96044.00;;;;5076681;28;20183;-85
2022/04/26 08:11:32;;;;;;;9.10;8.27;;;16.70;78.50;17.90;96050.00;;;;5091913;28;20389;-84
2022/04/26 08:14:00;;;;;;;9.20;8.30;;;16.80;78.40;18.00;96056.00;;;;5091150;28;20800;-86
2022/04/26 08:16:27;;;;;;;8.03;7.30;;;16.90;78.30;18.20;96052.00;;;;5091461;28;20330;-84
2022/04/26 08:18:54;;;;;;;6.20;5.70;;;17.00;78.80;18.40;96050.00;;;;5091753;28;20644;-84
2022/04/26 08:21:22;;;;;;;5.97;5.47;;;17.20;78.20;18.50;96052.00;;;;5090789;28;20694;-84
2022/04/26 08:29:26;;;;;;;6.30;5.80;;;17.50;77.00;18.70;96068.00;;;;5091644;28;20198;-84
2022/04/26 08:31:55;;;;;;;6.73;6.23;;;17.60;77.10;18.70;96066.00;;;;5088631;28;20197;-88
2022/04/26 08:34:23;;;;;;;6.73;6.13;;;17.70;76.00;18.80;96067.00;;;;5082969;28;20732;-88
2022/04/26 08:36:50;;;;;;;6.23;5.73;;;17.70;75.70;18.80;96061.00;;;;5082450;28;20624;-88
2022/04/26 08:39:20;;;;;;;5.97;5.47;;;17.80;75.20;18.80;96070.00;;;;5079977;28;20188;-90
2022/04/26 08:41:47;;;;;;;6.33;5.83;;;17.80;74.70;18.80;96079.00;;;;5081536;28;20278;-88
2022/04/26 08:44:14;;;;;;;5.70;5.30;;;17.90;74.40;18.90;96082.00;;;;5085064;28;20231;-87
2022/04/26 08:52:24;;;;;;;5.67;5.27;;;18.00;74.20;19.00;96076.00;;;;5072876;28;20311;-89
2022/04/26 08:54:52;;;;;;;6.27;5.77;;;18.00;74.10;19.10;96080.00;;;;5081921;28;20210;-90
2022/04/26 08:57:19;;;;;;;4.90;4.50;;;18.10;74.60;19.30;96082.00;;;;5078689;28;20219;-89
2022/04/26 08:59:48;;;;;;;5.63;5.13;;;18.20;74.40;19.50;96087.00;;;;5084731;28;20250;-90
2022/04/26 09:02:18;;;;;;;4.87;4.47;;;18.30;75.10;19.70;96079.00;;;;5083541;28;20664;-90
2022/04/26 09:04:45;;;;;;;4.73;4.37;;;18.50;74.90;19.90;96083.00;;;;5080570;28;20211;-90
2022/04/26 09:07:28;;;;;;;4.60;4.30;;;18.70;74.60;20.00;96090.00;;;;5082137;28;20250;-90
2022/04/26 09:10:09;;;;;;;4.13;3.83;;;18.80;75.00;20.10;96090.00;;;;5088554;28;20278;-89
2022/04/26 09:13:04;;;;;;;4.20;3.90;;;19.00;72.40;20.10;96091.00;;;;5084374;28;20218;-90
2022/04/26 09:15:39;;;;;;;3.87;3.57;;;19.10;70.00;20.10;96093.00;;;;5080757;28;20204;-88
2022/04/26 09:18:20;;;;;;;3.43;3.23;;;19.10;70.70;20.00;96086.00;;;;5080779;28;20183;-89
2022/04/26 09:20:49;;;;;;;3.13;2.93;;;19.10;70.40;19.90;96089.00;;;;5080639;28;20187;-89
2022/04/26 09:23:19;;;;;;;2.80;2.60;;;19.10;69.70;19.80;96084.00;;;;5080218;28;20287;-89
2022/04/26 09:25:51;;;;;;;2.47;2.37;;;19.10;69.10;19.70;96084.00;;;;5080896;28;20219;-90
2022/04/26 09:28:29;;;;;;;2.33;2.23;;;19.00;68.20;19.70;96088.00;;;;5080154;28;20230;-89
2022/04/26 09:30:57;;;;;;;2.30;2.20;;;19.00;68.00;19.60;96090.00;;;;5080952;28;20620;-89
2022/04/26 09:33:47;;;;;;;2.40;2.30;;;18.90;67.90;19.50;96087.00;;;;5081147;28;20227;-84
2022/04/26 09:36:16;;;;;;;2.07;1.97;;;18.80;67.40;19.40;96084.00;;;;5078540;28;20211;-84
2022/04/26 09:38:51;;;;;;;2.00;1.90;;;18.70;67.90;19.20;96085.00;;;;5079979;28;20223;-85
2022/04/26 09:41:21;;;;;;;2.07;1.97;;;18.60;68.00;19.10;96088.00;;;;5079406;28;20199;-85
2022/04/26 09:44:03;;;;;;;2.73;2.53;;;18.50;68.20;19.10;96086.00;;;;5080301;28;20197;-84
2022/04/26 09:46:48;;;;;;;2.27;2.17;;;18.50;68.40;19.00;96083.00;;;;5080965;28;20261;-84
2022/04/26 09:49:19;;;;;;;2.40;2.30;;;18.30;67.90;19.00;96085.00;;;;5078694;28;20218;-84
2022/04/26 09:51:47;;;;;;;2.80;2.60;;;18.30;69.40;19.00;96088.00;;;;5081171;28;20199;-84
2022/04/26 09:54:15;;;;;;;2.40;2.23;;;18.20;70.10;19.00;96087.00;;;;5078305;28;20680;-84
2022/04/26 09:56:46;;;;;;;2.40;2.30;;;18.20;70.10;19.00;96086.00;;;;5075422;28;20576;-84
2022/04/26 09:59:19;;;;;;;2.07;1.97;;;18.20;70.40;19.00;96091.00;;;;5080045;28;20192;-85
2022/04/26 10:01:48;;;;;;;1.90;1.80;;;18.20;70.40;19.00;96097.00;;;;5080415;28;20218;-85
2022/04/26 10:04:20;;;;;;;2.13;2.03;;;18.20;70.10;19.00;96095.00;;;;5080164;28;20191;-85
2022/04/26 10:06:51;;;;;;;1.90;1.77;;;18.10;70.40;18.90;96089.00;;;;5078982;28;20208;-85
2022/04/26 10:09:20;;;;;;;2.07;1.97;;;18.10;70.20;18.90;96098.00;;;;5080274;28;20653;-85
2022/04/26 10:11:49;;;;;;;2.20;2.10;;;18.10;70.20;18.80;96100.00;;;;5077615;28;20199;-85
2022/04/26 10:14:16;;;;;;;2.33;2.23;;;18.10;70.20;18.70;96102.00;;;;5076546;28;20269;-85
2022/04/26 10:16:46;;;;;;;2.40;2.30;;;18.00;70.10;18.70;96100.00;;;;5079734;28;20207;-85
2022/04/26 10:19:13;;;;;;;2.33;2.17;;;17.90;70.00;18.60;96096.00;;;;5078891;28;20231;-86
2022/04/26 10:21:49;;;;;;;2.23;2.13;;;17.90;70.20;18.50;96087.00;;;;5072358;28;20202;-86
2022/04/26 10:24:19;;;;;;;1.97;1.87;;;17.80;70.50;18.40;96082.00;;;;5078404;28;20264;-86
2022/04/26 10:26:50;;;;;;;2.23;2.13;;;17.80;71.10;18.30;96090.00;;;;5078151;28;20615;-86
2022/04/26 10:29:26;;;;;;;2.70;2.50;;;17.70;71.30;18.20;96097.00;;;;5083454;28;20593;-86
2022/04/26 10:32:10;;;;;;;2.57;2.37;;;17.60;71.40;18.20;96087.00;;;;5086461;28;20196;-86
2022/04/26 10:34:40;;;;;;;2.57;2.40;;;17.60;71.00;18.10;96100.00;;;;5084500;28;20589;-86
2022/04/26 10:37:33;;;;;;;1.80;1.70;;;17.50;71.40;18.00;96104.00;;;;5088681;28;20607;-86
2022/04/26 10:40:02;;;;;;;1.87;1.77;;;17.40;71.30;18.00;96101.00;;;;5080326;28;20211;-86
2022/04/26 10:42:35;;;;;;;1.80;1.70;;;17.40;72.00;17.90;96100.00;;;;5079261;28;20668;-86
2022/04/26 10:45:10;;;;;;;1.90;1.80;;;17.30;72.40;17.90;96094.00;;;;5079122;28;20195;-86
2022/04/26 10:47:39;;;;;;;2.07;1.87;;;17.30;72.50;17.80;96097.00;;;;5077197;28;20278;-86
2022/04/26 10:50:09;;;;;;;2.40;2.20;;;17.20;72.70;17.80;96095.00;;;;5078414;28;20286;-86
2022/04/26 10:52:44;;;;;;;1.80;1.70;;;17.10;72.90;17.70;96093.00;;;;5080775;28;20203;-86
2022/04/26 10:55:17;;;;;;;2.80;2.20;;;17.10;73.30;17.60;96093.00;;;;5075857;28;20188;-86
2022/04/26 10:58:19;;;;;;;2.03;1.93;;;17.10;73.70;17.60;96093.00;;;;5083189;28;20225;-86
2022/04/26 11:00:46;;;;;;;2.37;2.17;;;17.00;74.00;17.60;96109.00;;;;5075739;28;20230;-85
2022/04/26 11:03:13;;;;;;;2.40;2.30;;;17.00;74.00;17.60;96108.00;;;;5077013;28;20286;-84
2022/04/26 11:05:40;;;;;;;2.70;2.53;;;16.90;74.40;17.60;96114.00;;;;5076970;28;20230;-85
2022/04/26 11:08:09;;;;;;;2.80;2.60;;;16.90;75.10;17.60;96113.00;;;;5079216;28;20199;-85
2022/04/26 11:13:35;;;;;;;2.90;2.70;;;16.90;76.90;17.80;96112.00;;;;5077851;28;20369;-84
2022/04/26 11:16:12;;;;;;;2.60;2.40;;;16.90;77.00;17.90;96111.00;;;;5071169;22;20968;-85
2022/04/26 11:18:42;;;;;;;2.87;2.23;;;17.10;77.30;18.00;96116.00;;;;5024772;28;20228;-84
2022/04/26 11:21:13;;;;;;;1.87;1.77;;;17.10;77.50;18.20;96118.00;;;;5037095;28;20197;-83
2022/04/26 11:29:27;;;;;;;1.93;1.83;;;17.40;77.00;18.40;96126.00;;;;5043287;28;20234;-83
2022/04/26 11:31:55;;;;;;;1.90;1.80;;;17.50;76.50;18.40;96134.00;;;;5043209;28;20311;-82
2022/04/26 11:34:46;;;;;;;2.17;2.07;;;17.60;75.70;18.30;96131.00;;;;5045997;28;20228;-84
2022/04/26 11:37:14;;;;;;;1.43;1.40;;;17.60;75.60;18.30;96137.00;;;;5046724;28;20982;-83
2022/04/26 11:39:43;;;;;;;2.10;2.00;;;17.50;74.80;18.20;96147.00;;;;5047076;28;20314;-83
2022/04/26 11:42:12;;;;;;;1.80;1.70;;;17.50;74.60;18.10;96144.00;;;;5046927;28;20193;-84
2022/04/26 11:44:58;;;;;;;1.77;1.67;;;17.50;74.90;18.00;96160.00;;;;5044858;28;20204;-84
2022/04/26 11:47:42;;;;;;;2.23;1.97;;;17.40;74.00;17.90;96178.00;;;;5047721;28;20274;-84
2022/04/26 11:50:16;;;;;;;1.10;1.00;;;17.40;73.80;17.70;96174.00;;;;5045985;28;20636;-83
2022/04/26 11:52:44;;;;;;;1.00;0.90;;;17.20;72.60;17.30;96171.00;;;;5048802;28;20223;-86
2022/04/26 11:55:25;;;;;;;1.07;1.07;;;17.00;72.30;16.90;96170.00;;;;5045966;28;20305;-83
2022/04/26 11:57:54;;;;;;;0.90;0.90;;;16.80;71.80;16.60;96177.00;;;;5045825;28;20634;-85
2022/04/26 12:00:23;;;;;;;1.10;0.80;;;16.70;72.20;16.40;96174.00;;;;5046851;28;20200;-85
2022/04/26 12:02:50;;;;;;;0.70;0.70;;;16.30;72.20;16.20;96178.00;;;;5044517;28;20200;-82
2022/04/26 12:05:22;;;;;;;0.73;0.73;;;16.10;72.50;16.10;96182.00;;;;5048468;28;20275;-84
2022/04/26 12:07:51;;;;;;;1.00;0.90;;;15.90;73.20;16.00;96177.00;;;;5053233;28;20197;-84
2022/04/26 12:10:33;;;;;;;0.80;0.80;;;15.70;73.50;15.90;96190.00;;;;5052897;28;20225;-84
2022/04/26 12:13:03;;;;;;;0.97;0.97;;;15.60;74.70;15.80;96197.00;;;;5053221;28;20188;-85
2022/04/26 12:15:34;;;;;;;1.10;1.00;;;15.50;74.40;15.70;96202.00;;;;5052022;28;20252;-84
2022/04/26 12:18:11;;;;;;;1.30;1.20;;;15.40;74.90;15.70;96201.00;;;;5052962;28;20208;-83
2022/04/26 12:20:57;;;;;;;1.10;1.10;;;15.30;75.20;15.60;96206.00;;;;5050013;28;20266;-83
2022/04/26 12:23:26;;;;;;;1.40;1.40;;;15.30;75.50;15.60;96212.00;;;;5040873;28;21088;-83
2022/04/26 12:25:57;;;;;;;3.00;2.80;;;15.20;75.70;15.60;96218.00;;;;5038424;28;20216;-85
2022/04/26 12:28:26;;;;;;;1.70;1.60;;;15.20;75.90;15.60;96223.00;;;;5044945;28;20292;-85
2022/04/26 12:30:55;;;;;;;1.50;1.40;;;15.10;76.10;15.50;96219.00;;;;5046931;28;20193;-85
2022/04/26 12:33:30;;;;;;;1.50;1.40;;;15.10;76.00;15.50;96234.00;;;;5048800;28;20201;-85
2022/04/26 12:36:03;;;;;;;1.30;1.20;;;15.10;76.30;15.50;96239.00;;;;5050356;28;20212;-85
2022/04/26 12:38:31;;;;;;;1.90;1.80;;;15.00;76.40;15.50;96230.00;;;;5047736;28;20219;-86
2022/04/26 12:41:06;;;;;;;2.17;1.67;;;15.00;76.60;15.50;96233.00;;;;5042720;28;20193;-85
2022/04/26 12:43:35;;;;;;;1.53;1.43;;;15.00;76.80;15.40;96227.00;;;;5051363;28;20581;-87
2022/04/26 12:46:06;;;;;;;1.93;1.83;;;15.00;76.60;15.40;96227.00;;;;5050657;28;20258;-85
2022/04/26 12:51:22;;;;;;;1.83;1.67;;;15.00;76.60;15.40;96248.00;;;;5052423;28;20199;-85
2022/04/26 12:53:51;;;;;;;1.50;1.40;;;15.00;76.30;15.40;96243.00;;;;5046094;28;20224;-86
2022/04/26 12:56:20;;;;;;;1.53;1.43;;;15.00;76.30;15.40;96243.00;;;;5043064;28;20217;-85
2022/04/26 12:58:50;;;;;;;1.73;1.63;;;15.00;76.40;15.40;96236.00;;;;5040966;28;20307;-86
2022/04/26 13:01:20;;;;;;;1.63;1.53;;;15.00;76.30;15.40;96246.00;;;;5050874;28;20215;-86
2022/04/26 13:03:48;;;;;;;1.80;1.70;;;14.90;76.30;15.30;96245.00;;;;5051402;28;20653;-86
2022/04/26 13:06:17;;;;;;;1.60;1.50;;;15.00;76.20;15.30;96255.00;;;;5052772;28;20213;-86
2022/04/26 13:08:48;;;;;;;2.10;1.90;;;14.90;76.00;15.30;96251.00;;;;5052526;28;20282;-85
2022/04/26 13:11:18;;;;;;;1.97;1.87;;;14.90;76.10;15.30;96261.00;;;;5051160;28;21336;-86
2022/04/26 13:13:49;;;;;;;2.87;2.37;;;14.90;76.20;15.20;96264.00;;;;5052626;28;20585;-86
2022/04/26 13:16:16;;;;;;;2.47;2.33;;;14.80;76.30;15.20;96263.00;;;;5052503;28;20313;-86
2022/04/26 13:18:46;;;;;;;2.00;1.90;;;14.80;76.30;15.20;96264.00;;;;5053188;28;20622;-86
2022/04/26 13:21:14;;;;;;;1.90;1.80;;;14.80;76.50;15.10;96266.00;;;;5050071;28;20196;-85
2022/04/26 13:23:43;;;;;;;1.83;1.60;;;14.80;76.60;15.10;96259.00;;;;5051146;28;20209;-86
2022/04/26 13:26:10;;;;;;;1.63;1.53;;;14.70;76.60;15.10;96262.00;;;;5052654;28;20692;-87
2022/04/26 13:28:37;;;;;;;1.50;1.40;;;14.70;76.70;15.00;96272.00;;;;5051334;28;20189;-85
2022/04/26 13:31:04;;;;;;;1.63;1.53;;;14.70;77.50;15.00;96260.00;;;;5051589;28;20188;-86
2022/04/26 13:33:31;;;;;;;1.80;1.70;;;14.60;76.70;15.00;96262.00;;;;5051783;28;20243;-85
2022/04/26 13:36:00;;;;;;;1.73;1.60;;;14.60;76.80;14.90;96253.00;;;;5051239;28;20260;-86
2022/04/26 13:38:27;;;;;;;1.60;1.50;;;14.60;76.70;14.90;96252.00;;;;5052041;28;20547;-83
2022/04/26 13:40:55;;;;;;;1.60;1.33;;;14.50;76.90;14.90;96256.00;;;;5052436;28;20192;-86
2022/04/26 13:43:23;;;;;;;1.77;1.50;;;14.50;77.40;15.00;96253.00;;;;5052228;28;20197;-86
2022/04/26 13:45:51;;;;;;;1.70;1.60;;;14.50;77.70;15.10;96248.00;;;;5052203;28;20220;-86
2022/04/26 13:48:18;;;;;;;1.63;1.43;;;14.60;78.10;15.10;96251.00;;;;5051432;28;20199;-86
2022/04/26 13:50:45;;;;;;;1.53;1.43;;;14.60;78.40;15.20;96247.00;;;;5051855;28;20216;-84
2022/04/26 13:53:14;;;;;;;2.07;1.43;;;14.60;78.20;15.30;96247.00;;;;5051965;28;20630;-86
2022/04/26 13:55:41;;;;;;;1.80;1.40;;;14.70;78.20;15.30;96248.00;;;;5050567;28;20712;-86
2022/04/26 13:58:09;;;;;;;2.50;1.70;;;14.70;78.20;15.40;96255.00;;;;5052285;28;20255;-85
2022/04/26 14:00:36;;;;;;;1.80;1.70;;;14.80;78.40;15.50;96252.00;;;;5049081;28;20632;-85
2022/04/26 14:03:06;;;;;;;1.90;1.60;;;14.80;78.50;15.50;96253.00;;;;5051031;28;20664;-84
2022/04/26 14:05:34;;;;;;;1.80;1.70;;;14.90;78.70;15.60;96246.00;;;;5050366;28;20704;-85
2022/04/26 14:08:02;;;;;;;1.43;1.33;;;14.90;78.40;15.70;96246.00;;;;5048073;28;20217;-85
2022/04/26 14:10:31;;;;;;;1.67;1.57;;;15.00;78.00;15.70;96260.00;;;;5048837;28;20192;-85
2022/04/26 14:12:59;;;;;;;2.00;1.27;;;15.10;77.70;15.80;96277.00;;;;5049996;28;20204;-84
2022/04/26 14:23:52;;;;;;;1.33;1.10;;;15.30;77.30;16.00;96290.00;;;;5040681;28;20678;-85
2022/04/26 14:26:20;;;;;;;1.50;1.40;;;15.40;76.40;15.90;96291.00;;;;5050507;28;20295;-85
2022/04/26 14:28:48;;;;;;;2.17;1.97;;;15.40;76.20;15.90;96293.00;;;;5049044;28;20279;-86
2022/04/26 14:31:15;;;;;;;1.70;1.60;;;15.40;75.90;15.80;96300.00;;;;5051420;28;20197;-86
2022/04/26 14:33:42;;;;;;;2.23;1.90;;;15.30;75.50;15.80;96321.00;;;;5050668;28;20193;-85
2022/04/26 14:36:10;;;;;;;1.50;1.17;;;15.30;75.30;15.80;96314.00;;;;5050584;28;20291;-86
2022/04/26 14:38:37;;;;;;;1.90;1.80;;;15.30;75.00;15.70;96301.00;;;;5051084;28;20201;-85
2022/04/26 14:41:04;;;;;;;2.83;2.63;;;15.20;75.60;15.70;96312.00;;;;5050699;28;20280;-87
2022/04/26 14:43:32;;;;;;;3.00;2.80;;;15.30;74.90;15.80;96308.00;;;;5048445;28;20906;-85
2022/04/26 14:45:59;;;;;;;4.37;3.30;;;15.20;74.90;15.80;96319.00;;;;5048301;28;20642;-86
2022/04/26 14:48:29;;;;;;;2.97;2.77;;;15.20;74.30;15.80;96323.00;;;;5051325;28;20653;-88
2022/04/26 14:50:57;;;;;;;2.80;2.60;;;15.30;74.40;15.70;96316.00;;;;5051681;28;20229;-89
2022/04/26 14:53:24;;;;;;;2.33;2.13;;;15.20;74.30;15.70;96326.00;;;;5050346;28;20195;-88
2022/04/26 14:55:51;;;;;;;2.33;2.13;;;15.20;74.40;15.70;96337.00;;;;5049349;28;20301;-87
2022/04/26 14:58:19;;;;;;;3.80;2.73;;;15.20;74.40;15.60;96350.00;;;;5050193;28;20644;-86
2022/04/26 15:00:47;;;;;;;2.60;2.40;;;15.20;74.40;15.60;96348.00;;;;5048391;28;20197;-85
2022/04/26 15:03:14;;;;;;;2.30;2.10;;;15.10;74.00;15.50;96349.00;;;;5046744;28;20280;-85
2022/04/26 15:05:41;;;;;;;3.70;2.70;;;15.10;73.80;15.50;96355.00;;;;5049226;28;20711;-85
2022/04/26 15:10:55;;;;;;;3.00;2.80;;;15.00;74.00;15.40;96363.00;;;;5050580;28;20215;-84